createdAt,value
2023-04-17T00:00:58.750Z,43.78
2023-04-17T00:06:00.739Z,43.83
2023-04-17T00:11:07.926Z,44.00
2023-04-17T00:16:14.088Z,43.93
2023-04-17T00:21:16.065Z,43.94
2023-04-17T00:26:18.113Z,44.05
2023-04-17T00:31:20.097Z,43.79
2023-04-17T00:36:22.191Z,43.54
2023-04-17T00:41:24.272Z,43.84
2023-04-17T00:46:26.413Z,43.94
2023-04-17T00:51:28.775Z,44.03
2023-04-17T00:56:31.264Z,43.79
2023-04-17T01:01:33.439Z,43.66
2023-04-17T01:06:35.350Z,43.80
2023-04-17T01:11:37.520Z,43.68
2023-04-17T01:16:40.559Z,43.51
2023-04-17T01:21:42.911Z,43.84
2023-04-17T01:26:45.356Z,43.50
2023-04-17T01:31:47.352Z,43.68
2023-04-17T01:36:50.041Z,43.91
2023-04-17T01:41:52.485Z,43.57
2023-04-17T01:46:54.603Z,43.67
2023-04-17T01:51:56.538Z,43.83
2023-04-17T01:56:58.473Z,43.61
2023-04-17T02:02:00.832Z,43.61
2023-04-17T02:07:03.187Z,43.83
2023-04-17T02:12:05.309Z,43.50
2023-04-17T02:17:07.658Z,43.83
2023-04-17T02:22:09.685Z,43.68
2023-04-17T02:27:12.071Z,43.84
2023-04-17T02:32:15.862Z,43.87
2023-04-17T02:37:17.735Z,43.98
2023-04-17T02:42:19.814Z,43.68
2023-04-17T02:47:22.038Z,43.55
2023-04-17T02:52:24.012Z,43.64
2023-04-17T02:57:26.170Z,43.73
2023-04-17T03:02:30.931Z,43.65
2023-04-17T03:07:33.536Z,43.66
2023-04-17T03:12:35.899Z,43.58
2023-04-17T03:17:37.917Z,43.83
2023-04-17T03:22:39.995Z,43.64
2023-04-17T03:27:42.087Z,43.51
2023-04-17T03:32:44.149Z,43.75
2023-04-17T03:37:46.086Z,43.47
2023-04-17T03:42:47.981Z,43.67
2023-04-17T03:47:50.023Z,43.56
2023-04-17T03:52:52.261Z,43.44
2023-04-17T03:57:54.151Z,43.43
2023-04-17T04:02:59.619Z,43.70
2023-04-17T04:08:01.753Z,43.44
2023-04-17T04:13:03.813Z,43.96
2023-04-17T04:18:06.411Z,43.45
2023-04-17T04:23:08.776Z,43.42
2023-04-17T04:28:13.618Z,43.63
2023-04-17T04:33:15.536Z,43.65
2023-04-17T04:38:18.297Z,43.84
2023-04-17T04:43:22.279Z,43.78
2023-04-17T04:48:24.497Z,43.75
2023-04-17T04:53:26.556Z,43.86
2023-04-17T04:58:30.018Z,43.94
2023-04-17T05:03:32.511Z,43.70
2023-04-17T05:08:34.824Z,44.06
2023-04-17T05:13:36.958Z,43.79
2023-04-17T05:18:38.923Z,43.87
2023-04-17T05:23:41.077Z,43.71
2023-04-17T05:28:45.388Z,43.78
2023-04-17T05:33:47.475Z,43.75
2023-04-17T05:38:49.805Z,43.80
2023-04-17T05:43:51.756Z,43.86
2023-04-17T05:48:53.599Z,43.75
2023-04-17T05:53:55.719Z,43.99
2023-04-17T05:58:57.852Z,43.92
2023-04-17T06:04:01.986Z,43.64
2023-04-17T06:09:06.112Z,43.84
2023-04-17T06:14:08.010Z,43.96
2023-04-17T06:19:10.125Z,43.78
2023-04-17T06:24:12.784Z,43.60
2023-04-17T06:29:15.861Z,43.52
2023-04-17T06:34:17.838Z,43.93
2023-04-17T06:39:20.107Z,43.79
2023-04-17T06:44:22.324Z,43.79
2023-04-17T06:49:24.373Z,43.37
2023-04-17T06:54:26.795Z,43.64
2023-04-17T06:59:28.886Z,43.68
2023-04-17T07:04:31.852Z,43.33
2023-04-17T07:09:33.773Z,43.50
2023-04-17T07:14:35.836Z,43.38
2023-04-17T07:19:38.296Z,43.69
2023-04-17T07:24:40.719Z,43.27
2023-04-17T07:29:42.658Z,43.33
2023-04-17T07:34:44.813Z,43.60
2023-04-17T07:39:50.356Z,43.33
2023-04-17T07:44:52.352Z,43.50
2023-04-17T07:49:54.354Z,43.53
2023-04-17T07:54:57.051Z,44.44
2023-04-17T07:59:59.375Z,45.15
2023-04-17T08:05:02.015Z,45.36
2023-04-17T08:10:05.066Z,45.68
2023-04-17T08:15:07.672Z,45.61
2023-04-17T08:20:11.644Z,45.85
2023-04-17T08:25:14.622Z,45.93
2023-04-17T08:30:19.045Z,45.54
2023-04-17T08:35:21.584Z,45.75
2023-04-17T08:40:25.410Z,45.58
2023-04-17T08:45:28.074Z,45.52
2023-04-17T08:50:30.953Z,45.07
2023-04-17T08:55:33.060Z,45.01
2023-04-17T09:00:44.065Z,44.59
2023-04-17T09:05:46.776Z,44.61
2023-04-17T09:10:50.695Z,44.48
2023-04-17T09:16:10.074Z,44.50
2023-04-17T09:21:13.773Z,44.71
2023-04-17T09:26:19.074Z,44.60
2023-04-17T09:31:30.650Z,44.86
2023-04-17T09:36:37.620Z,44.71
2023-04-17T09:41:39.782Z,44.63
2023-04-17T09:46:46.275Z,44.79
2023-04-17T09:51:49.658Z,44.95
2023-04-17T09:56:52.705Z,44.76
2023-04-17T10:01:55.098Z,45.03
2023-04-17T10:06:58.489Z,44.78
2023-04-17T10:12:02.847Z,44.80
2023-04-17T10:17:25.059Z,44.79
2023-04-17T10:22:28.233Z,44.43
2023-04-17T10:27:33.071Z,44.73
2023-04-17T10:32:35.264Z,44.30
2023-04-17T10:37:53.037Z,44.62
2023-04-17T10:43:04.994Z,44.42
2023-04-17T10:48:07.236Z,44.32
2023-04-17T10:53:37.981Z,43.79
2023-04-17T10:59:08.211Z,43.61
2023-04-17T11:04:11.797Z,43.84
2023-04-17T11:09:15.175Z,43.39
2023-04-17T11:14:19.158Z,43.36
2023-04-17T11:19:23.786Z,43.45
2023-04-17T11:24:27.622Z,43.23
2023-04-17T11:29:30.123Z,43.26
2023-04-17T11:34:32.428Z,43.12
2023-04-17T11:39:35.023Z,43.38
2023-04-17T11:44:37.031Z,43.75
2023-04-17T11:49:39.505Z,43.52
2023-04-17T11:54:41.892Z,43.32
2023-04-17T11:59:45.797Z,42.87
2023-04-17T12:04:48.373Z,42.86
2023-04-17T12:09:58.241Z,42.21
2023-04-17T12:15:00.386Z,42.13
2023-04-17T12:20:04.621Z,41.90
2023-04-17T12:25:07.409Z,41.83
2023-04-17T12:30:10.165Z,42.19
2023-04-17T12:35:12.248Z,42.01
2023-04-17T12:40:15.912Z,41.95
2023-04-17T12:45:18.492Z,41.47
2023-04-17T12:50:20.631Z,41.41
2023-04-17T12:55:22.620Z,41.13
2023-04-17T13:00:25.181Z,41.16
2023-04-17T13:05:31.413Z,40.81
2023-04-17T13:10:34.723Z,40.50
2023-04-17T13:15:37.264Z,40.80
2023-04-17T13:20:39.505Z,41.16
2023-04-17T13:25:41.717Z,40.61
2023-04-17T13:30:44.152Z,40.71
2023-04-17T13:35:46.198Z,40.60
2023-04-17T13:40:48.183Z,40.75
2023-04-17T13:45:53.449Z,40.80
2023-04-17T13:50:57.035Z,40.46
2023-04-17T13:55:59.388Z,40.53
2023-04-17T14:01:01.894Z,40.32
2023-04-17T14:06:04.483Z,40.20
2023-04-17T14:11:06.829Z,39.90
2023-04-17T14:16:09.121Z,39.65
2023-04-17T14:21:11.128Z,38.51
2023-04-17T14:26:13.609Z,38.42
2023-04-17T14:31:15.797Z,38.60
2023-04-17T14:36:18.081Z,38.43
2023-04-17T14:41:20.830Z,38.19
2023-04-17T14:46:23.058Z,38.33
2023-04-17T14:51:25.177Z,38.14
2023-04-17T14:56:27.265Z,37.78
2023-04-17T15:01:29.581Z,38.13
2023-04-17T15:06:31.558Z,38.84
2023-04-17T15:11:33.784Z,38.86
2023-04-17T15:16:35.783Z,38.76
2023-04-17T15:21:37.830Z,39.00
2023-04-17T15:26:40.096Z,39.08
2023-04-17T15:31:42.391Z,38.69
2023-04-17T15:36:44.668Z,38.96
2023-04-17T15:41:46.755Z,38.61
2023-04-17T15:46:48.907Z,38.58
2023-04-17T15:51:51.046Z,38.58
2023-04-17T15:56:53.100Z,38.45
2023-04-17T16:01:55.683Z,38.40
2023-04-17T16:06:57.720Z,38.46
2023-04-17T16:11:59.841Z,38.31
2023-04-17T16:17:01.739Z,38.52
2023-04-17T16:22:03.694Z,38.29
2023-04-17T16:27:06.935Z,38.55
2023-04-17T16:32:09.087Z,38.38
2023-04-17T16:37:11.073Z,38.65
2023-04-17T16:42:13.138Z,38.77
2023-04-17T16:47:15.324Z,38.75
2023-04-17T16:52:17.408Z,38.95
2023-04-17T16:57:19.558Z,38.86
2023-04-17T17:02:22.014Z,38.80
2023-04-17T17:07:24.368Z,38.60
2023-04-17T17:12:26.325Z,38.85
2023-04-17T17:17:28.310Z,38.57
2023-04-17T17:22:30.589Z,38.95
2023-04-17T17:27:32.599Z,38.75
2023-04-17T17:32:34.921Z,38.76
2023-04-17T17:37:37.078Z,39.32
2023-04-17T17:42:40.312Z,39.46
2023-04-17T17:47:42.485Z,39.57
2023-04-17T17:52:44.584Z,39.84
2023-04-17T17:57:49.316Z,39.56
2023-04-17T18:02:51.958Z,39.26
2023-04-17T18:07:54.042Z,39.20
2023-04-17T18:12:56.183Z,38.92
2023-04-17T18:17:58.496Z,39.17
2023-04-17T18:23:00.507Z,39.01
2023-04-17T18:28:04.160Z,38.98
2023-04-17T18:33:06.631Z,39.19
2023-04-17T18:38:09.331Z,39.21
2023-04-17T18:43:11.507Z,40.12
2023-04-17T18:48:13.787Z,40.52
2023-04-17T18:53:15.911Z,40.72
2023-04-17T18:58:17.966Z,40.67
2023-04-17T19:03:20.121Z,40.75
2023-04-17T19:08:22.251Z,40.67
2023-04-17T19:13:24.740Z,40.57
2023-04-17T19:18:26.796Z,40.33
2023-04-17T19:23:29.316Z,40.57
2023-04-17T19:28:31.486Z,40.40
2023-04-17T19:33:34.455Z,40.73
2023-04-17T19:38:37.014Z,42.54
2023-04-17T19:43:39.261Z,42.64
2023-04-17T19:48:43.829Z,42.70
2023-04-17T19:53:47.159Z,41.44
2023-04-17T19:58:49.156Z,41.67
2023-04-17T20:03:51.797Z,41.60
2023-04-17T20:08:54.142Z,41.17
2023-04-17T20:13:56.133Z,41.22
2023-04-17T20:18:58.402Z,41.13
2023-04-17T20:24:00.429Z,41.04
2023-04-17T20:29:02.355Z,41.00
2023-04-17T20:34:04.364Z,40.92
2023-04-17T20:39:07.505Z,40.98
2023-04-17T20:44:09.708Z,40.86
2023-04-17T20:49:11.979Z,41.20
2023-04-17T20:54:14.447Z,40.92
2023-04-17T20:59:16.691Z,40.95
2023-04-17T21:04:18.790Z,41.41
2023-04-17T21:09:21.005Z,41.15
2023-04-17T21:14:23.052Z,41.16
2023-04-17T21:19:28.803Z,41.03
2023-04-17T21:24:30.880Z,41.24
2023-04-17T21:29:32.764Z,41.09
2023-04-17T21:34:34.833Z,41.09
2023-04-17T21:39:36.832Z,40.89
2023-04-17T21:44:38.878Z,40.87
2023-04-17T21:49:40.764Z,41.12
2023-04-17T21:54:43.758Z,41.02
2023-04-17T21:59:45.884Z,40.95
2023-04-17T22:04:47.925Z,40.92
2023-04-17T22:09:50.116Z,41.05
2023-04-17T22:14:52.146Z,40.97
2023-04-17T22:20:12.475Z,41.08
2023-04-17T22:26:10.458Z,40.87
2023-04-17T22:31:32.881Z,41.06
2023-04-17T22:37:12.212Z,41.25
2023-04-17T22:42:32.708Z,40.87
2023-04-17T22:47:34.846Z,41.17
2023-04-17T22:52:36.835Z,41.04
2023-04-17T22:57:39.073Z,41.43
2023-04-17T23:02:41.265Z,41.30
2023-04-17T23:07:43.272Z,41.06
2023-04-17T23:12:45.553Z,41.20
2023-04-17T23:17:47.859Z,41.43
2023-04-17T23:22:50.232Z,41.42
2023-04-17T23:27:52.310Z,41.33
2023-04-17T23:32:55.791Z,41.50
2023-04-17T23:37:57.939Z,41.32
2023-04-17T23:43:00.026Z,41.29
2023-04-17T23:48:01.985Z,41.55
2023-04-17T23:53:04.120Z,41.47
2023-04-17T23:58:06.411Z,41.57
